createdAt,value
2019-05-17T00:01:43.976Z,9.19
2019-05-17T00:04:10.240Z,9.08
2019-05-17T00:06:36.941Z,9.12
2019-05-17T00:09:06.980Z,9.12
2019-05-17T00:11:33.567Z,9.08
2019-05-17T00:13:59.759Z,9.07
2019-05-17T00:16:26.823Z,9.11
2019-05-17T00:18:53.377Z,9.05
2019-05-17T00:21:19.497Z,9.08
2019-05-17T00:23:46.990Z,9.12
2019-05-17T00:26:13.373Z,9.22
2019-05-17T00:28:39.854Z,9.19
2019-05-17T00:31:06.700Z,9.05
2019-05-17T00:33:33.154Z,8.99
2019-05-17T00:35:59.446Z,9.04
2019-05-17T00:38:27.376Z,9.08
2019-05-17T00:40:56.349Z,9.06
2019-05-17T00:43:22.142Z,9.08
2019-05-17T00:45:48.341Z,9.03
2019-05-17T00:48:16.943Z,8.96
2019-05-17T00:50:42.913Z,8.96
2019-05-17T00:53:09.265Z,8.99
2019-05-17T00:55:36.293Z,8.96
2019-05-17T00:58:02.867Z,9.05
2019-05-17T01:00:29.233Z,8.99
2019-05-17T01:02:57.379Z,8.86
2019-05-17T01:05:23.745Z,8.88
2019-05-17T01:07:50.201Z,8.93
2019-05-17T01:10:16.930Z,8.88
2019-05-17T01:12:43.165Z,8.94
2019-05-17T01:15:10.059Z,8.87
2019-05-17T01:17:36.747Z,8.93
2019-05-17T01:20:06.958Z,8.92
2019-05-17T01:22:33.451Z,8.87
2019-05-17T01:24:59.537Z,8.87
2019-05-17T01:27:26.393Z,8.88
2019-05-17T01:29:52.592Z,8.93
2019-05-17T01:32:18.735Z,9.09
2019-05-17T01:34:46.931Z,9.01
2019-05-17T01:37:13.381Z,9.02
2019-05-17T01:39:39.697Z,9.00
2019-05-17T01:42:06.768Z,8.96
2019-05-17T01:44:33.113Z,9.01
2019-05-17T01:46:59.290Z,9.02
2019-05-17T01:49:27.091Z,9.07
2019-05-17T01:51:53.476Z,9.05
2019-05-17T01:54:19.638Z,9.07
2019-05-17T01:56:46.294Z,9.08
2019-05-17T01:59:12.630Z,9.04
2019-05-17T02:01:39.350Z,9.04
2019-05-17T02:04:06.797Z,9.04
2019-05-17T02:06:33.127Z,9.01
2019-05-17T02:08:59.223Z,9.04
2019-05-17T02:11:26.926Z,9.07
2019-05-17T02:13:53.434Z,9.05
2019-05-17T02:16:19.767Z,9.10
2019-05-17T02:18:46.564Z,9.08
2019-05-17T02:21:12.982Z,9.11
2019-05-17T02:23:39.193Z,9.26
2019-05-17T02:26:06.612Z,9.23
2019-05-17T02:28:34.396Z,9.15
2019-05-17T02:31:03.394Z,9.09
2019-05-17T02:33:29.343Z,9.09
2019-05-17T02:35:55.459Z,9.03
2019-05-17T02:38:22.453Z,9.09
2019-05-17T02:40:48.707Z,9.15
2019-05-17T02:43:14.864Z,9.15
2019-05-17T02:45:43.552Z,9.08
2019-05-17T02:48:09.218Z,9.07
2019-05-17T02:50:35.578Z,9.08
2019-05-17T02:53:04.386Z,9.12
2019-05-17T02:55:32.478Z,9.18
2019-05-17T02:58:02.515Z,9.15
2019-05-17T03:00:27.127Z,9.18
2019-05-17T03:02:53.759Z,9.09
2019-05-17T03:05:22.990Z,9.01
2019-05-17T03:07:48.557Z,9.20
2019-05-17T03:10:23.609Z,9.15
2019-05-17T03:12:44.375Z,9.14
2019-05-17T03:15:13.010Z,9.13
2019-05-17T03:17:42.939Z,9.10
2019-05-17T03:20:08.004Z,9.09
2019-05-17T03:22:34.363Z,9.16
2019-05-17T03:25:03.614Z,9.14
2019-05-17T03:27:33.497Z,9.09
2019-05-17T03:29:58.143Z,9.14
2019-05-17T03:32:26.368Z,9.17
2019-05-17T03:34:55.998Z,9.10
2019-05-17T03:37:25.863Z,9.10
2019-05-17T03:39:53.401Z,9.11
2019-05-17T03:42:18.624Z,9.09
2019-05-17T03:44:45.020Z,9.04
2019-05-17T03:47:13.099Z,9.14
2019-05-17T03:49:39.906Z,9.18
2019-05-17T03:52:06.222Z,9.16
2019-05-17T03:54:32.659Z,9.22
2019-05-17T03:56:58.999Z,9.18
2019-05-17T03:59:25.353Z,9.16
2019-05-17T04:01:52.701Z,9.10
2019-05-17T04:04:22.659Z,9.05
2019-05-17T04:06:47.351Z,9.06
2019-05-17T04:09:14.235Z,9.05
2019-05-17T04:11:42.908Z,9.05
2019-05-17T04:14:08.820Z,9.06
2019-05-17T04:16:35.187Z,9.10
2019-05-17T04:19:03.078Z,9.02
2019-05-17T04:21:29.751Z,9.10
2019-05-17T04:23:55.860Z,9.08
2019-05-17T04:26:23.172Z,9.02
2019-05-17T04:28:52.942Z,9.06
2019-05-17T04:31:17.767Z,9.11
2019-05-17T04:33:43.981Z,9.12
2019-05-17T04:36:13.038Z,9.19
2019-05-17T04:38:38.347Z,9.21
2019-05-17T04:41:04.629Z,9.17
2019-05-17T04:43:33.345Z,9.21
2019-05-17T04:46:02.731Z,9.20
2019-05-17T04:48:28.155Z,9.18
2019-05-17T04:50:54.449Z,9.22
2019-05-17T04:53:23.378Z,9.24
2019-05-17T04:55:49.042Z,9.18
2019-05-17T04:58:15.505Z,9.17
2019-05-17T05:00:42.995Z,9.22
2019-05-17T05:03:12.468Z,9.36
2019-05-17T05:05:37.791Z,9.28
2019-05-17T05:08:04.099Z,9.24
2019-05-17T05:10:32.936Z,9.37
2019-05-17T05:12:58.676Z,9.37
2019-05-17T05:15:43.716Z,9.43
2019-05-17T05:18:09.383Z,9.44
2019-05-17T05:20:35.789Z,9.40
2019-05-17T05:23:02.791Z,9.38
2019-05-17T05:25:29.056Z,9.35
2019-05-17T05:27:55.282Z,9.40
2019-05-17T05:30:22.530Z,9.38
2019-05-17T05:32:48.990Z,9.48
2019-05-17T05:35:15.345Z,9.47
2019-05-17T05:37:42.582Z,9.54
2019-05-17T05:40:09.387Z,9.57
2019-05-17T05:42:35.720Z,9.54
2019-05-17T05:45:03.117Z,9.59
2019-05-17T05:47:29.569Z,9.57
2019-05-17T05:49:55.820Z,9.57
2019-05-17T05:52:22.002Z,9.53
2019-05-17T05:54:48.148Z,9.51
2019-05-17T05:57:14.545Z,9.58
2019-05-17T05:59:42.648Z,9.66
2019-05-17T06:02:08.800Z,9.59
2019-05-17T06:04:35.052Z,9.64
2019-05-17T06:07:02.943Z,9.73
2019-05-17T06:09:31.880Z,9.78
2019-05-17T06:11:58.427Z,9.71
2019-05-17T06:14:24.640Z,9.74
2019-05-17T06:16:51.997Z,9.79
2019-05-17T06:19:18.431Z,9.92
2019-05-17T06:21:45.630Z,9.83
2019-05-17T06:24:12.069Z,9.93
2019-05-17T06:26:38.278Z,9.98
2019-05-17T06:29:04.713Z,10.06
2019-05-17T06:31:33.135Z,10.01
2019-05-17T06:33:58.989Z,9.98
2019-05-17T06:36:25.105Z,9.90
2019-05-17T06:38:52.719Z,9.90
2019-05-17T06:41:21.560Z,9.97
2019-05-17T06:43:47.891Z,10.05
2019-05-17T06:46:14.207Z,10.15
2019-05-17T06:48:42.397Z,10.19
2019-05-17T06:51:08.724Z,10.33
2019-05-17T06:53:35.016Z,10.25
2019-05-17T06:56:02.738Z,10.23
2019-05-17T06:58:31.375Z,10.25
2019-05-17T07:00:57.137Z,10.13
2019-05-17T07:03:23.263Z,10.12
2019-05-17T07:05:51.303Z,10.17
2019-05-17T07:08:17.433Z,10.15
2019-05-17T07:10:44.689Z,10.22
2019-05-17T07:13:11.031Z,10.25
2019-05-17T07:15:44.750Z,10.40
2019-05-17T07:18:05.750Z,10.48
2019-05-17T07:20:32.058Z,10.45
2019-05-17T07:23:00.417Z,10.48
2019-05-17T07:25:26.428Z,10.48
2019-05-17T07:27:53.880Z,10.45
2019-05-17T07:30:20.938Z,10.78
2019-05-17T07:32:49.606Z,10.78
2019-05-17T07:35:15.731Z,10.82
2019-05-17T07:37:42.009Z,10.74
2019-05-17T07:40:10.830Z,10.74
2019-05-17T07:42:39.468Z,10.66
2019-05-17T07:45:05.976Z,10.54
2019-05-17T07:47:32.181Z,10.66
2019-05-17T07:50:00.942Z,10.74
2019-05-17T07:52:26.368Z,10.74
2019-05-17T07:54:53.595Z,10.78
2019-05-17T07:57:20.735Z,10.87
2019-05-17T07:59:50.631Z,10.98
2019-05-17T08:02:16.107Z,11.21
2019-05-17T08:04:42.322Z,11.24
2019-05-17T08:07:10.713Z,11.44
2019-05-17T08:09:36.878Z,11.44
2019-05-17T08:12:03.230Z,11.24
2019-05-17T08:14:31.092Z,11.24
2019-05-17T08:16:59.802Z,11.07
2019-05-17T08:19:25.782Z,11.10
2019-05-17T08:21:52.114Z,11.02
2019-05-17T08:24:19.646Z,11.02
2019-05-17T08:26:45.751Z,11.03
2019-05-17T08:29:11.896Z,10.84
2019-05-17T08:31:40.348Z,10.84
2019-05-17T08:34:06.462Z,10.80
2019-05-17T08:36:33.791Z,10.82
2019-05-17T08:39:00.871Z,10.80
2019-05-17T08:41:30.699Z,10.68
2019-05-17T08:43:55.315Z,10.70
2019-05-17T08:46:21.587Z,10.84
2019-05-17T08:48:49.484Z,10.80
2019-05-17T08:51:15.756Z,10.88
2019-05-17T08:53:42.042Z,10.94
2019-05-17T08:56:09.940Z,10.93
2019-05-17T08:58:36.324Z,10.82
2019-05-17T09:01:02.751Z,10.82
2019-05-17T09:03:30.435Z,10.85
2019-05-17T09:05:56.683Z,10.93
2019-05-17T09:08:22.946Z,11.00
2019-05-17T09:10:50.462Z,11.11
2019-05-17T09:13:19.378Z,11.16
2019-05-17T09:15:45.098Z,11.40
2019-05-17T09:18:11.368Z,11.40
2019-05-17T09:20:40.234Z,11.51
2019-05-17T09:23:05.864Z,11.54
2019-05-17T09:25:32.262Z,11.33
2019-05-17T09:28:00.689Z,11.13
2019-05-17T09:30:27.234Z,11.25
2019-05-17T09:32:53.752Z,11.40
2019-05-17T09:35:20.791Z,11.53
2019-05-17T09:37:49.726Z,11.40
2019-05-17T09:40:15.674Z,11.40
2019-05-17T09:42:42.242Z,11.40
2019-05-17T09:45:09.678Z,11.41
2019-05-17T09:47:36.224Z,11.30
2019-05-17T09:50:05.005Z,11.47
2019-05-17T09:52:31.135Z,11.47
2019-05-17T09:54:57.291Z,11.32
2019-05-17T09:57:23.398Z,11.38
2019-05-17T09:59:49.734Z,11.45
2019-05-17T10:02:16.066Z,11.59
2019-05-17T10:04:42.288Z,11.69
2019-05-17T10:07:10.129Z,11.51
2019-05-17T10:09:36.592Z,11.73
2019-05-17T10:12:02.963Z,11.85
2019-05-17T10:14:31.369Z,11.82
2019-05-17T10:16:57.393Z,11.81
2019-05-17T10:19:23.732Z,11.96
2019-05-17T10:21:49.961Z,11.99
2019-05-17T10:24:16.214Z,12.10
2019-05-17T10:26:42.330Z,11.91
2019-05-17T10:29:09.996Z,12.01
2019-05-17T10:31:36.337Z,12.07
2019-05-17T10:34:02.889Z,11.98
2019-05-17T10:36:30.111Z,11.98
2019-05-17T10:38:56.513Z,11.97
2019-05-17T10:41:22.893Z,12.12
2019-05-17T10:43:50.052Z,12.23
2019-05-17T10:46:20.365Z,12.33
2019-05-17T10:48:49.895Z,12.45
2019-05-17T10:51:15.596Z,12.70
2019-05-17T10:53:42.051Z,12.62
2019-05-17T10:56:10.026Z,12.79
2019-05-17T10:58:36.310Z,12.71
2019-05-17T11:01:02.748Z,12.54
2019-05-17T11:03:29.688Z,12.39
2019-05-17T11:05:56.231Z,12.33
2019-05-17T11:08:22.361Z,12.28
2019-05-17T11:10:50.155Z,12.24
2019-05-17T11:13:16.725Z,12.39
2019-05-17T11:15:43.063Z,12.45
2019-05-17T11:18:09.383Z,12.52
2019-05-17T11:20:35.747Z,12.57
2019-05-17T11:23:02.115Z,12.64
2019-05-17T11:25:28.223Z,12.38
2019-05-17T11:27:54.612Z,12.18
2019-05-17T11:30:20.973Z,12.18
2019-05-17T11:32:47.335Z,12.24
2019-05-17T11:35:13.721Z,12.24
2019-05-17T11:37:39.859Z,12.41
2019-05-17T11:40:08.324Z,12.56
2019-05-17T11:42:34.616Z,12.72
2019-05-17T11:45:00.835Z,12.94
2019-05-17T11:47:27.152Z,13.13
2019-05-17T11:49:53.597Z,13.73
2019-05-17T11:52:19.892Z,14.40
2019-05-17T11:54:46.022Z,14.70
2019-05-17T11:57:12.511Z,14.68
2019-05-17T11:59:38.983Z,14.71
2019-05-17T12:02:05.311Z,14.93
2019-05-17T12:04:31.562Z,15.40
2019-05-17T12:06:57.786Z,15.70
2019-05-17T12:09:36.410Z,15.28
2019-05-17T12:11:52.268Z,15.72
2019-05-17T12:14:18.500Z,15.39
2019-05-17T12:16:44.773Z,15.31
2019-05-17T12:19:10.962Z,15.57
2019-05-17T12:21:37.253Z,15.31
2019-05-17T12:24:04.717Z,15.36
2019-05-17T12:26:31.083Z,15.54
2019-05-17T12:28:57.273Z,15.55
2019-05-17T12:31:23.570Z,15.48
2019-05-17T12:33:49.854Z,15.65
2019-05-17T12:36:16.098Z,15.52
2019-05-17T12:38:42.381Z,15.54
2019-05-17T12:41:08.752Z,15.21
2019-05-17T12:43:34.898Z,15.35
2019-05-17T12:46:01.890Z,15.31
2019-05-17T12:48:28.182Z,15.09
2019-05-17T12:50:54.641Z,15.38
2019-05-17T12:53:20.916Z,15.66
2019-05-17T12:55:47.178Z,15.52
2019-05-17T12:58:13.524Z,15.49
2019-05-17T13:00:39.734Z,15.44
2019-05-17T13:03:06.007Z,15.28
2019-05-17T13:05:32.346Z,15.26
2019-05-17T13:07:58.465Z,15.44
2019-05-17T13:10:24.831Z,15.64
2019-05-17T13:12:51.038Z,15.60
2019-05-17T13:15:17.378Z,15.36
2019-05-17T13:17:43.611Z,15.09
2019-05-17T13:20:10.434Z,15.02
2019-05-17T13:22:36.800Z,14.91
2019-05-17T13:25:05.169Z,14.89
2019-05-17T13:27:31.365Z,15.05
2019-05-17T13:29:57.693Z,15.28
2019-05-17T13:32:23.965Z,15.29
2019-05-17T13:34:50.380Z,15.26
2019-05-17T13:37:16.511Z,15.19
2019-05-17T13:39:42.684Z,15.21
2019-05-17T13:42:09.100Z,15.25
2019-05-17T13:44:35.247Z,15.41
2019-05-17T13:47:01.679Z,15.71
2019-05-17T13:49:28.144Z,15.58
2019-05-17T13:51:54.269Z,15.53
2019-05-17T13:54:20.618Z,15.38
2019-05-17T13:56:46.713Z,15.50
2019-05-17T13:59:13.098Z,15.53
2019-05-17T14:01:39.400Z,15.32
2019-05-17T14:04:05.927Z,15.40
2019-05-17T14:06:32.207Z,15.40
2019-05-17T14:08:58.340Z,15.40
2019-05-17T14:11:24.650Z,15.68
2019-05-17T14:13:50.915Z,15.94
2019-05-17T14:16:17.299Z,15.50
2019-05-17T14:18:43.744Z,15.32
2019-05-17T14:21:10.149Z,15.19
2019-05-17T14:23:36.576Z,15.38
2019-05-17T14:26:03.155Z,15.41
2019-05-17T14:28:29.677Z,15.53
2019-05-17T14:30:55.999Z,15.51
2019-05-17T14:33:23.423Z,15.57
2019-05-17T14:35:49.637Z,15.67
2019-05-17T14:38:15.787Z,15.65
2019-05-17T14:43:10.604Z,15.47
2019-05-17T14:45:36.778Z,15.56
2019-05-17T14:48:03.189Z,15.51
2019-05-17T14:50:29.473Z,15.82
2019-05-17T14:52:55.810Z,15.99
2019-05-17T14:55:22.237Z,16.04
2019-05-17T14:57:48.388Z,16.08
2019-05-17T15:00:16.539Z,15.93
2019-05-17T15:02:42.777Z,15.89
2019-05-17T15:05:09.329Z,15.86
2019-05-17T15:07:35.501Z,15.93
2019-05-17T15:10:03.694Z,16.08
2019-05-17T15:12:30.038Z,16.16
2019-05-17T15:14:56.176Z,16.29
2019-05-17T15:17:22.410Z,16.04
2019-05-17T15:19:51.293Z,16.02
2019-05-17T15:22:16.840Z,16.03
2019-05-17T15:24:43.160Z,16.14
2019-05-17T15:27:09.478Z,16.07
2019-05-17T15:29:35.602Z,16.09
2019-05-17T15:32:01.828Z,16.10
2019-05-17T15:34:28.160Z,16.05
2019-05-17T15:36:54.317Z,16.08
2019-05-17T15:39:20.678Z,16.21
2019-05-17T15:41:46.991Z,16.13
2019-05-17T15:44:13.339Z,16.13
2019-05-17T15:46:39.686Z,16.01
2019-05-17T15:49:06.063Z,16.23
2019-05-17T15:51:32.494Z,16.44
2019-05-17T15:53:58.757Z,16.46
2019-05-17T15:56:25.470Z,16.50
2019-05-17T15:58:51.766Z,16.56
2019-05-17T16:01:18.136Z,16.39
2019-05-17T16:03:44.474Z,16.36
2019-05-17T16:06:10.928Z,16.26
2019-05-17T16:08:37.382Z,16.40
2019-05-17T16:11:03.747Z,16.47
2019-05-17T16:13:33.731Z,16.60
2019-05-17T16:15:59.128Z,16.73
2019-05-17T16:18:25.370Z,16.49
2019-05-17T16:20:51.441Z,16.53
2019-05-17T16:23:17.787Z,16.38
2019-05-17T16:25:44.047Z,16.43
2019-05-17T16:28:10.285Z,16.37
2019-05-17T16:30:36.582Z,16.39
2019-05-17T16:33:02.931Z,16.19
2019-05-17T16:35:29.363Z,16.18
2019-05-17T16:37:55.591Z,16.19
2019-05-17T16:40:21.862Z,16.22
2019-05-17T16:42:48.044Z,16.06
2019-05-17T16:45:17.302Z,16.11
2019-05-17T16:47:43.728Z,15.97
2019-05-17T16:50:10.303Z,15.99
2019-05-17T16:52:36.843Z,16.09
2019-05-17T16:55:07.066Z,15.96
2019-05-17T16:57:33.439Z,15.91
2019-05-17T16:59:59.839Z,15.82
2019-05-17T17:02:26.194Z,15.63
2019-05-17T17:04:52.561Z,15.67
2019-05-17T17:07:19.080Z,15.57
2019-05-17T17:09:45.384Z,15.60
2019-05-17T17:12:11.597Z,15.62
2019-05-17T17:14:37.980Z,15.71
2019-05-17T17:17:10.288Z,15.55
2019-05-17T17:19:32.739Z,15.66
2019-05-17T17:21:59.013Z,15.69
2019-05-17T17:24:25.344Z,15.73
2019-05-17T17:26:51.595Z,15.60
2019-05-17T17:29:18.073Z,15.45
2019-05-17T17:31:45.319Z,15.51
2019-05-17T17:34:11.619Z,15.51
2019-05-17T17:36:37.863Z,15.62
2019-05-17T17:39:05.254Z,15.71
2019-05-17T17:41:31.592Z,15.67
2019-05-17T17:43:59.184Z,15.62
2019-05-17T17:46:25.813Z,15.58
2019-05-17T17:48:52.136Z,15.58
2019-05-17T17:51:18.251Z,15.52
2019-05-17T17:53:44.529Z,15.54
2019-05-17T17:56:13.557Z,15.49
2019-05-17T17:58:39.201Z,15.45
2019-05-17T18:01:05.613Z,15.53
2019-05-17T18:03:31.949Z,15.63
2019-05-17T18:05:59.180Z,15.58
2019-05-17T18:08:25.406Z,15.50
2019-05-17T18:10:51.766Z,15.41
2019-05-17T18:13:18.079Z,15.38
2019-05-17T18:15:44.775Z,15.41
2019-05-17T18:18:11.288Z,15.32
2019-05-17T18:20:37.639Z,15.34
2019-05-17T18:23:04.423Z,15.36
2019-05-17T18:25:30.867Z,15.30
2019-05-17T18:27:57.230Z,15.33
2019-05-17T18:30:23.441Z,15.35
2019-05-17T18:32:49.898Z,15.20
2019-05-17T18:35:16.226Z,15.26
2019-05-17T18:37:42.756Z,15.10
2019-05-17T18:40:09.121Z,15.12
2019-05-17T18:42:35.456Z,15.10
2019-05-17T18:45:02.316Z,15.10
2019-05-17T18:47:28.736Z,15.01
2019-05-17T18:49:54.925Z,14.99
2019-05-17T18:52:21.148Z,15.00
2019-05-17T18:54:47.264Z,14.98
2019-05-17T18:57:13.681Z,14.96
2019-05-17T18:59:39.898Z,14.97
2019-05-17T19:02:09.000Z,14.99
2019-05-17T19:04:35.320Z,14.98
2019-05-17T19:07:01.739Z,14.90
2019-05-17T19:09:28.251Z,14.85
2019-05-17T19:11:54.629Z,14.80
2019-05-17T19:14:20.944Z,14.78
2019-05-17T19:16:47.346Z,14.71
2019-05-17T19:19:13.509Z,14.78
2019-05-17T19:21:39.951Z,14.65
2019-05-17T19:24:06.402Z,14.71
2019-05-17T19:26:32.619Z,14.58
2019-05-17T19:28:58.769Z,14.61
2019-05-17T19:31:25.106Z,14.62
2019-05-17T19:33:51.578Z,14.42
2019-05-17T19:36:18.225Z,14.54
2019-05-17T19:38:47.524Z,14.58
2019-05-17T19:41:13.996Z,14.42
2019-05-17T19:43:40.163Z,14.28
2019-05-17T19:46:06.658Z,14.31
2019-05-17T19:48:33.121Z,14.30
2019-05-17T19:50:59.577Z,14.30
2019-05-17T19:53:27.018Z,14.32
2019-05-17T19:55:54.619Z,14.23
2019-05-17T19:58:21.006Z,14.16
2019-05-17T20:00:47.343Z,14.11
2019-05-17T20:03:13.842Z,14.07
2019-05-17T20:05:40.291Z,14.02
2019-05-17T20:08:06.811Z,13.93
2019-05-17T20:10:33.247Z,13.94
2019-05-17T20:12:59.697Z,13.99
2019-05-17T20:15:34.065Z,13.95
2019-05-17T20:17:54.684Z,13.99
2019-05-17T20:20:21.103Z,13.90
2019-05-17T20:22:47.407Z,13.76
2019-05-17T20:25:14.352Z,13.76
2019-05-17T20:27:40.780Z,13.62
2019-05-17T20:30:07.874Z,13.67
2019-05-17T20:32:34.354Z,13.73
2019-05-17T20:35:02.860Z,13.68
2019-05-17T20:37:29.303Z,13.70
2019-05-17T20:39:55.437Z,13.70
2019-05-17T20:42:21.769Z,13.72
2019-05-17T20:44:48.145Z,13.73
2019-05-17T20:47:14.350Z,13.69
2019-05-17T20:49:40.625Z,13.73
2019-05-17T20:52:06.742Z,13.70
2019-05-17T20:54:32.960Z,13.71
2019-05-17T20:56:59.268Z,13.70
2019-05-17T20:59:25.610Z,13.77
2019-05-17T21:01:52.974Z,13.69
2019-05-17T21:04:19.202Z,13.72
2019-05-17T21:06:45.536Z,13.87
2019-05-17T21:09:11.877Z,13.98
2019-05-17T21:11:38.144Z,13.80
2019-05-17T21:14:04.857Z,13.84
2019-05-17T21:16:31.222Z,13.80
2019-05-17T21:18:58.622Z,13.71
2019-05-17T21:21:24.933Z,13.77
2019-05-17T21:23:51.188Z,13.73
2019-05-17T21:26:17.452Z,13.71
2019-05-17T21:28:47.095Z,13.67
2019-05-17T21:31:11.939Z,13.63
2019-05-17T21:33:38.321Z,13.55
2019-05-17T21:36:04.546Z,13.58
2019-05-17T21:38:30.845Z,13.50
2019-05-17T21:40:57.087Z,13.50
2019-05-17T21:43:23.221Z,13.50
2019-05-17T21:46:02.674Z,13.40
2019-05-17T21:48:17.483Z,13.40
2019-05-17T21:50:43.788Z,13.42
2019-05-17T21:53:09.956Z,13.35
2019-05-17T21:55:36.088Z,13.37
2019-05-17T21:58:02.423Z,13.37
2019-05-17T22:00:49.624Z,13.34
2019-05-17T22:03:15.984Z,13.26
2019-05-17T22:05:42.145Z,13.25
2019-05-17T22:08:08.503Z,13.18
2019-05-17T22:10:34.601Z,13.21
2019-05-17T22:13:00.828Z,13.16
2019-05-17T22:15:26.942Z,13.21
2019-05-17T22:17:53.353Z,13.25
2019-05-17T22:20:19.586Z,13.19
2019-05-17T22:22:45.915Z,13.18
2019-05-17T22:25:12.256Z,13.21
2019-05-17T22:27:38.375Z,13.11
2019-05-17T22:30:05.543Z,12.91
2019-05-17T22:32:31.662Z,12.74
2019-05-17T22:34:57.802Z,12.63
2019-05-17T22:37:23.884Z,12.64
2019-05-17T22:39:50.127Z,12.68
2019-05-17T22:42:16.272Z,12.74
2019-05-17T22:44:42.688Z,12.70
2019-05-17T22:47:09.130Z,12.80
2019-05-17T22:49:35.520Z,12.77
2019-05-17T22:52:01.839Z,12.75
2019-05-17T22:54:29.159Z,12.66
2019-05-17T22:56:55.324Z,12.76
2019-05-17T22:59:21.493Z,12.62
2019-05-17T23:01:47.792Z,12.56
2019-05-17T23:04:13.926Z,12.53
2019-05-17T23:06:40.309Z,12.29
2019-05-17T23:09:06.645Z,11.98
2019-05-17T23:11:32.968Z,11.80
2019-05-17T23:13:59.247Z,11.71
2019-05-17T23:16:25.595Z,11.67
2019-05-17T23:19:07.669Z,11.56
2019-05-17T23:21:34.064Z,11.40
2019-05-17T23:24:00.244Z,11.40
2019-05-17T23:26:26.866Z,11.27
2019-05-17T23:28:53.311Z,11.31
2019-05-17T23:31:19.453Z,11.25
2019-05-17T23:33:45.759Z,11.29
2019-05-17T23:36:11.913Z,11.28
2019-05-17T23:38:38.118Z,11.28
2019-05-17T23:41:04.363Z,11.33
2019-05-17T23:43:31.613Z,11.43
2019-05-17T23:45:57.981Z,10.90
2019-05-17T23:48:24.188Z,10.90
2019-05-17T23:50:50.413Z,10.56
2019-05-17T23:53:16.688Z,10.56
2019-05-17T23:55:42.812Z,10.55
2019-05-17T23:58:09.289Z,10.58
